sensor_id;sensor_type;location;lat;lon;timestamp;P1;durP1;ratioP1;P2;durP2;ratioP2
22219;SDS011;11279;48.364;10.904;2022-10-31T00:00:14;29.17;;;16.37;;
22219;SDS011;11279;48.364;10.904;2022-10-31T00:01:22;27.00;;;15.57;;
22219;SDS011;11279;48.364;10.904;2022-10-31T00:02:29;28.17;;;15.68;;
22219;SDS011;11279;48.364;10.904;2022-10-31T00:03:30;28.23;;;16.03;;
22219;SDS011;11279;48.364;10.904;2022-10-31T00:04:30;27.07;;;15.30;;
22219;SDS011;11279;48.364;10.904;2022-10-31T00:05:31;29.53;;;15.77;;
22219;SDS011;11279;48.364;10.904;2022-10-31T00:06:31;31.40;;;16.70;;
22219;SDS011;11279;48.364;10.904;2022-10-31T00:07:32;30.63;;;15.03;;
22219;SDS011;11279;48.364;10.904;2022-10-31T00:08:32;28.87;;;15.27;;
22219;SDS011;11279;48.364;10.904;2022-10-31T00:09:33;29.33;;;15.43;;
22219;SDS011;11279;48.364;10.904;2022-10-31T00:10:33;32.27;;;15.10;;
22219;SDS011;11279;48.364;10.904;2022-10-31T00:11:37;29.05;;;15.45;;
22219;SDS011;11279;48.364;10.904;2022-10-31T00:12:38;27.70;;;15.60;;
22219;SDS011;11279;48.364;10.904;2022-10-31T00:13:38;27.63;;;15.07;;
22219;SDS011;11279;48.364;10.904;2022-10-31T00:14:38;25.40;;;14.10;;
22219;SDS011;11279;48.364;10.904;2022-10-31T00:15:39;28.37;;;14.10;;
22219;SDS011;11279;48.364;10.904;2022-10-31T00:16:40;31.65;;;15.23;;
22219;SDS011;11279;48.364;10.904;2022-10-31T00:17:41;28.52;;;14.70;;
22219;SDS011;11279;48.364;10.904;2022-10-31T00:18:42;29.27;;;14.47;;
22219;SDS011;11279;48.364;10.904;2022-10-31T00:19:42;26.63;;;13.87;;
22219;SDS011;11279;48.364;10.904;2022-10-31T00:20:42;25.67;;;13.87;;
22219;SDS011;11279;48.364;10.904;2022-10-31T00:21:43;28.83;;;13.87;;
22219;SDS011;11279;48.364;10.904;2022-10-31T00:22:43;32.73;;;14.70;;
22219;SDS011;11279;48.364;10.904;2022-10-31T00:23:44;25.53;;;13.93;;
22219;SDS011;11279;48.364;10.904;2022-10-31T00:24:44;23.53;;;12.40;;
22219;SDS011;11279;48.364;10.904;2022-10-31T00:25:45;28.43;;;13.03;;
22219;SDS011;11279;48.364;10.904;2022-10-31T00:26:45;28.00;;;15.03;;
22219;SDS011;11279;48.364;10.904;2022-10-31T00:27:48;21.20;;;13.68;;
22219;SDS011;11279;48.364;10.904;2022-10-31T00:28:48;30.23;;;15.27;;
22219;SDS011;11279;48.364;10.904;2022-10-31T00:29:49;25.67;;;14.67;;
22219;SDS011;11279;48.364;10.904;2022-10-31T00:30:49;27.53;;;13.57;;
22219;SDS011;11279;48.364;10.904;2022-10-31T00:31:51;24.00;;;13.50;;
22219;SDS011;11279;48.364;10.904;2022-10-31T00:32:52;21.15;;;13.23;;
22219;SDS011;11279;48.364;10.904;2022-10-31T00:33:52;24.57;;;13.60;;
22219;SDS011;11279;48.364;10.904;2022-10-31T00:34:52;26.10;;;13.07;;
22219;SDS011;11279;48.364;10.904;2022-10-31T00:35:53;29.00;;;13.60;;
22219;SDS011;11279;48.364;10.904;2022-10-31T00:36:54;29.65;;;12.85;;
22219;SDS011;11279;48.364;10.904;2022-10-31T00:37:54;30.00;;;14.77;;
22219;SDS011;11279;48.364;10.904;2022-10-31T00:38:55;23.83;;;14.17;;
22219;SDS011;11279;48.364;10.904;2022-10-31T00:39:55;26.27;;;12.23;;
22219;SDS011;11279;48.364;10.904;2022-10-31T00:40:56;24.90;;;12.40;;
22219;SDS011;11279;48.364;10.904;2022-10-31T00:41:56;21.30;;;12.80;;
22219;SDS011;11279;48.364;10.904;2022-10-31T00:42:56;25.50;;;13.20;;
22219;SDS011;11279;48.364;10.904;2022-10-31T00:43:57;27.70;;;13.97;;
22219;SDS011;11279;48.364;10.904;2022-10-31T00:44:57;25.73;;;14.27;;
22219;SDS011;11279;48.364;10.904;2022-10-31T00:45:58;23.63;;;13.80;;
22219;SDS011;11279;48.364;10.904;2022-10-31T00:46:58;25.90;;;12.93;;
22219;SDS011;11279;48.364;10.904;2022-10-31T00:47:59;23.60;;;13.20;;
22219;SDS011;11279;48.364;10.904;2022-10-31T00:48:59;29.73;;;14.33;;
22219;SDS011;11279;48.364;10.904;2022-10-31T00:50:00;22.27;;;13.87;;
22219;SDS011;11279;48.364;10.904;2022-10-31T00:51:00;23.70;;;13.43;;
22219;SDS011;11279;48.364;10.904;2022-10-31T00:52:00;30.00;;;14.63;;
22219;SDS011;11279;48.364;10.904;2022-10-31T00:53:01;25.33;;;13.70;;
22219;SDS011;11279;48.364;10.904;2022-10-31T00:54:02;18.87;;;12.67;;
22219;SDS011;11279;48.364;10.904;2022-10-31T00:55:02;24.10;;;12.03;;
22219;SDS011;11279;48.364;10.904;2022-10-31T00:56:03;25.23;;;12.40;;
22219;SDS011;11279;48.364;10.904;2022-10-31T00:57:04;24.17;;;12.37;;
22219;SDS011;11279;48.364;10.904;2022-10-31T00:58:04;21.63;;;12.50;;
22219;SDS011;11279;48.364;10.904;2022-10-31T00:59:04;25.30;;;12.70;;
22219;SDS011;11279;48.364;10.904;2022-10-31T01:00:05;23.33;;;13.53;;
22219;SDS011;11279;48.364;10.904;2022-10-31T01:01:06;22.17;;;12.05;;
22219;SDS011;11279;48.364;10.904;2022-10-31T01:02:06;23.07;;;13.30;;
22219;SDS011;11279;48.364;10.904;2022-10-31T01:03:07;25.40;;;14.40;;
22219;SDS011;11279;48.364;10.904;2022-10-31T01:04:07;24.07;;;12.33;;
22219;SDS011;11279;48.364;10.904;2022-10-31T01:05:08;27.17;;;13.43;;
22219;SDS011;11279;48.364;10.904;2022-10-31T01:06:09;22.33;;;12.73;;
22219;SDS011;11279;48.364;10.904;2022-10-31T01:07:11;22.42;;;11.40;;
22219;SDS011;11279;48.364;10.904;2022-10-31T01:08:13;15.68;;;10.98;;
22219;SDS011;11279;48.364;10.904;2022-10-31T01:09:14;22.80;;;11.73;;
22219;SDS011;11279;48.364;10.904;2022-10-31T01:10:14;20.40;;;12.43;;
22219;SDS011;11279;48.364;10.904;2022-10-31T01:11:16;22.53;;;12.17;;
22219;SDS011;11279;48.364;10.904;2022-10-31T01:12:18;26.88;;;11.90;;
22219;SDS011;11279;48.364;10.904;2022-10-31T01:13:19;22.17;;;12.40;;
22219;SDS011;11279;48.364;10.904;2022-10-31T01:14:19;23.77;;;12.73;;
22219;SDS011;11279;48.364;10.904;2022-10-31T01:15:20;23.27;;;11.83;;
22219;SDS011;11279;48.364;10.904;2022-10-31T01:16:22;21.30;;;11.88;;
22219;SDS011;11279;48.364;10.904;2022-10-31T01:17:24;24.83;;;13.23;;
22219;SDS011;11279;48.364;10.904;2022-10-31T01:18:24;22.30;;;11.27;;
22219;SDS011;11279;48.364;10.904;2022-10-31T01:19:25;22.47;;;11.37;;
22219;SDS011;11279;48.364;10.904;2022-10-31T01:20:26;29.77;;;13.20;;
22219;SDS011;11279;48.364;10.904;2022-10-31T01:21:26;23.37;;;12.53;;
22219;SDS011;11279;48.364;10.904;2022-10-31T01:22:28;24.00;;;12.07;;
22219;SDS011;11279;48.364;10.904;2022-10-31T01:23:28;23.67;;;12.37;;
22219;SDS011;11279;48.364;10.904;2022-10-31T01:24:29;22.90;;;12.27;;
22219;SDS011;11279;48.364;10.904;2022-10-31T01:25:29;28.50;;;12.43;;
22219;SDS011;11279;48.364;10.904;2022-10-31T01:26:30;18.27;;;10.40;;
22219;SDS011;11279;48.364;10.904;2022-10-31T01:27:32;22.52;;;11.63;;
22219;SDS011;11279;48.364;10.904;2022-10-31T01:28:33;21.20;;;11.00;;
22219;SDS011;11279;48.364;10.904;2022-10-31T01:29:34;24.02;;;11.60;;
22219;SDS011;11279;48.364;10.904;2022-10-31T01:30:34;22.07;;;11.50;;
22219;SDS011;11279;48.364;10.904;2022-10-31T01:31:36;21.70;;;12.33;;
22219;SDS011;11279;48.364;10.904;2022-10-31T01:32:37;19.05;;;11.13;;
22219;SDS011;11279;48.364;10.904;2022-10-31T01:33:38;26.07;;;12.20;;
22219;SDS011;11279;48.364;10.904;2022-10-31T01:34:38;20.57;;;10.80;;
22219;SDS011;11279;48.364;10.904;2022-10-31T01:35:39;27.37;;;12.70;;
22219;SDS011;11279;48.364;10.904;2022-10-31T01:36:39;22.17;;;12.27;;
22219;SDS011;11279;48.364;10.904;2022-10-31T01:37:40;25.23;;;12.63;;
22219;SDS011;11279;48.364;10.904;2022-10-31T01:38:40;27.93;;;12.70;;
22219;SDS011;11279;48.364;10.904;2022-10-31T01:39:41;29.27;;;11.73;;
22219;SDS011;11279;48.364;10.904;2022-10-31T01:40:41;22.33;;;11.60;;
22219;SDS011;11279;48.364;10.904;2022-10-31T01:41:43;20.23;;;11.30;;
22219;SDS011;11279;48.364;10.904;2022-10-31T01:42:48;25.98;;;10.95;;
22219;SDS011;11279;48.364;10.904;2022-10-31T01:43:55;21.47;;;9.93;;
22219;SDS011;11279;48.364;10.904;2022-10-31T01:44:58;18.42;;;10.63;;
22219;SDS011;11279;48.364;10.904;2022-10-31T01:46:00;22.30;;;11.80;;
22219;SDS011;11279;48.364;10.904;2022-10-31T01:47:15;28.20;;;12.17;;
22219;SDS011;11279;48.364;10.904;2022-10-31T01:48:18;24.15;;;12.75;;
22219;SDS011;11279;48.364;10.904;2022-10-31T01:50:28;20.77;;;11.23;;
22219;SDS011;11279;48.364;10.904;2022-10-31T01:51:34;21.63;;;11.20;;
22219;SDS011;11279;48.364;10.904;2022-10-31T01:52:37;20.77;;;11.07;;
22219;SDS011;11279;48.364;10.904;2022-10-31T01:53:39;23.98;;;11.05;;
22219;SDS011;11279;48.364;10.904;2022-10-31T01:54:43;20.17;;;10.68;;
22219;SDS011;11279;48.364;10.904;2022-10-31T01:55:50;25.63;;;13.13;;
22219;SDS011;11279;48.364;10.904;2022-10-31T01:56:51;22.00;;;10.50;;
22219;SDS011;11279;48.364;10.904;2022-10-31T01:57:53;18.63;;;10.40;;
22219;SDS011;11279;48.364;10.904;2022-10-31T01:58:55;28.70;;;10.73;;
22219;SDS011;11279;48.364;10.904;2022-10-31T01:59:59;24.33;;;11.07;;
22219;SDS011;11279;48.364;10.904;2022-10-31T02:01:03;19.85;;;10.90;;
22219;SDS011;11279;48.364;10.904;2022-10-31T02:02:03;22.17;;;10.67;;
22219;SDS011;11279;48.364;10.904;2022-10-31T02:03:03;26.40;;;9.80;;
22219;SDS011;11279;48.364;10.904;2022-10-31T02:04:04;25.27;;;12.07;;
22219;SDS011;11279;48.364;10.904;2022-10-31T02:05:07;24.23;;;10.48;;
22219;SDS011;11279;48.364;10.904;2022-10-31T02:06:13;24.20;;;10.18;;
22219;SDS011;11279;48.364;10.904;2022-10-31T02:07:23;22.10;;;10.00;;
22219;SDS011;11279;48.364;10.904;2022-10-31T02:08:28;19.98;;;9.35;;
22219;SDS011;11279;48.364;10.904;2022-10-31T02:09:30;25.10;;;10.75;;
22219;SDS011;11279;48.364;10.904;2022-10-31T02:10:32;17.67;;;9.50;;
22219;SDS011;11279;48.364;10.904;2022-10-31T02:11:33;21.20;;;9.32;;
22219;SDS011;11279;48.364;10.904;2022-10-31T02:12:35;21.17;;;10.30;;
22219;SDS011;11279;48.364;10.904;2022-10-31T02:13:38;22.08;;;10.57;;
22219;SDS011;11279;48.364;10.904;2022-10-31T02:14:38;21.77;;;10.80;;
22219;SDS011;11279;48.364;10.904;2022-10-31T02:15:40;21.77;;;10.37;;
22219;SDS011;11279;48.364;10.904;2022-10-31T02:16:41;21.80;;;10.40;;
22219;SDS011;11279;48.364;10.904;2022-10-31T02:17:41;20.80;;;10.33;;
22219;SDS011;11279;48.364;10.904;2022-10-31T02:18:42;18.13;;;9.30;;
22219;SDS011;11279;48.364;10.904;2022-10-31T02:19:48;22.37;;;9.63;;
22219;SDS011;11279;48.364;10.904;2022-10-31T02:22:16;19.80;;;10.25;;
22219;SDS011;11279;48.364;10.904;2022-10-31T02:25:50;20.55;;;10.15;;
22219;SDS011;11279;48.364;10.904;2022-10-31T02:28:16;16.65;;;9.63;;
22219;SDS011;11279;48.364;10.904;2022-10-31T02:31:16;22.37;;;10.03;;
22219;SDS011;11279;48.364;10.904;2022-10-31T02:33:33;17.27;;;10.52;;
22219;SDS011;11279;48.364;10.904;2022-10-31T02:36:57;15.88;;;9.77;;
22219;SDS011;11279;48.364;10.904;2022-10-31T02:39:23;26.20;;;11.18;;
22219;SDS011;11279;48.364;10.904;2022-10-31T02:40:38;19.48;;;10.80;;
22219;SDS011;11279;48.364;10.904;2022-10-31T02:41:49;17.67;;;9.70;;
22219;SDS011;11279;48.364;10.904;2022-10-31T02:43:02;22.95;;;10.52;;
22219;SDS011;11279;48.364;10.904;2022-10-31T02:44:17;24.33;;;10.23;;
22219;SDS011;11279;48.364;10.904;2022-10-31T02:47:39;19.33;;;10.50;;
22219;SDS011;11279;48.364;10.904;2022-10-31T02:48:41;17.30;;;10.48;;
22219;SDS011;11279;48.364;10.904;2022-10-31T02:49:53;19.10;;;10.02;;
22219;SDS011;11279;48.364;10.904;2022-10-31T02:50:56;25.52;;;10.88;;
22219;SDS011;11279;48.364;10.904;2022-10-31T02:51:58;19.90;;;10.50;;
22219;SDS011;11279;48.364;10.904;2022-10-31T02:52:58;17.27;;;9.80;;
22219;SDS011;11279;48.364;10.904;2022-10-31T02:53:59;19.27;;;9.97;;
22219;SDS011;11279;48.364;10.904;2022-10-31T02:55:08;25.70;;;10.33;;
22219;SDS011;11279;48.364;10.904;2022-10-31T02:56:24;21.55;;;9.60;;
22219;SDS011;11279;48.364;10.904;2022-10-31T02:57:31;16.87;;;9.47;;
22219;SDS011;11279;48.364;10.904;2022-10-31T02:58:33;23.25;;;10.75;;
22219;SDS011;11279;48.364;10.904;2022-10-31T02:59:36;20.80;;;10.38;;
22219;SDS011;11279;48.364;10.904;2022-10-31T03:00:44;19.92;;;10.80;;
22219;SDS011;11279;48.364;10.904;2022-10-31T03:11:09;22.40;;;10.93;;
22219;SDS011;11279;48.364;10.904;2022-10-31T03:12:22;24.27;;;10.10;;
22219;SDS011;11279;48.364;10.904;2022-10-31T03:13:46;20.90;;;9.48;;
22219;SDS011;11279;48.364;10.904;2022-10-31T03:17:18;20.70;;;9.70;;
22219;SDS011;11279;48.364;10.904;2022-10-31T03:18:26;18.20;;;8.80;;
22219;SDS011;11279;48.364;10.904;2022-10-31T03:19:29;21.20;;;9.55;;
22219;SDS011;11279;48.364;10.904;2022-10-31T03:20:36;17.90;;;8.90;;
22219;SDS011;11279;48.364;10.904;2022-10-31T03:21:41;22.70;;;11.32;;
22219;SDS011;11279;48.364;10.904;2022-10-31T03:22:44;26.30;;;10.82;;
22219;SDS011;11279;48.364;10.904;2022-10-31T03:23:45;20.60;;;10.13;;
22219;SDS011;11279;48.364;10.904;2022-10-31T03:24:47;19.63;;;10.13;;
22219;SDS011;11279;48.364;10.904;2022-10-31T03:25:51;23.83;;;10.98;;
22219;SDS011;11279;48.364;10.904;2022-10-31T03:26:53;21.67;;;10.07;;
22219;SDS011;11279;48.364;10.904;2022-10-31T03:27:55;24.38;;;10.20;;
22219;SDS011;11279;48.364;10.904;2022-10-31T03:28:59;18.67;;;9.50;;
22219;SDS011;11279;48.364;10.904;2022-10-31T03:30:03;20.83;;;10.27;;
22219;SDS011;11279;48.364;10.904;2022-10-31T03:31:05;21.40;;;9.32;;
22219;SDS011;11279;48.364;10.904;2022-10-31T03:32:08;21.60;;;10.05;;
22219;SDS011;11279;48.364;10.904;2022-10-31T03:33:12;21.85;;;10.88;;
22219;SDS011;11279;48.364;10.904;2022-10-31T03:34:16;24.83;;;10.73;;
22219;SDS011;11279;48.364;10.904;2022-10-31T03:35:19;23.15;;;9.43;;
22219;SDS011;11279;48.364;10.904;2022-10-31T03:36:21;20.80;;;9.85;;
22219;SDS011;11279;48.364;10.904;2022-10-31T03:37:23;19.13;;;10.10;;
22219;SDS011;11279;48.364;10.904;2022-10-31T03:38:25;28.42;;;10.98;;
22219;SDS011;11279;48.364;10.904;2022-10-31T03:39:26;20.33;;;9.63;;
22219;SDS011;11279;48.364;10.904;2022-10-31T03:40:27;22.98;;;11.00;;
22219;SDS011;11279;48.364;10.904;2022-10-31T03:41:28;23.33;;;11.23;;
22219;SDS011;11279;48.364;10.904;2022-10-31T03:42:33;17.90;;;9.88;;
22219;SDS011;11279;48.364;10.904;2022-10-31T03:43:36;22.38;;;10.98;;
22219;SDS011;11279;48.364;10.904;2022-10-31T03:44:38;23.90;;;10.20;;
22219;SDS011;11279;48.364;10.904;2022-10-31T03:45:43;18.48;;;10.25;;
22219;SDS011;11279;48.364;10.904;2022-10-31T03:46:44;21.63;;;9.77;;
22219;SDS011;11279;48.364;10.904;2022-10-31T03:47:45;21.97;;;11.37;;
22219;SDS011;11279;48.364;10.904;2022-10-31T03:48:46;24.03;;;11.00;;
22219;SDS011;11279;48.364;10.904;2022-10-31T03:49:46;21.40;;;9.63;;
22219;SDS011;11279;48.364;10.904;2022-10-31T03:52:00;18.70;;;10.50;;
22219;SDS011;11279;48.364;10.904;2022-10-31T03:55:17;20.75;;;10.50;;
22219;SDS011;11279;48.364;10.904;2022-10-31T03:56:33;20.08;;;9.48;;
22219;SDS011;11279;48.364;10.904;2022-10-31T03:57:40;18.75;;;9.48;;
22219;SDS011;11279;48.364;10.904;2022-10-31T03:58:52;19.27;;;9.05;;
22219;SDS011;11279;48.364;10.904;2022-10-31T04:00:05;19.48;;;10.05;;
22219;SDS011;11279;48.364;10.904;2022-10-31T04:01:07;19.60;;;9.45;;
22219;SDS011;11279;48.364;10.904;2022-10-31T04:02:13;20.73;;;9.85;;
22219;SDS011;11279;48.364;10.904;2022-10-31T04:03:17;20.75;;;11.13;;
22219;SDS011;11279;48.364;10.904;2022-10-31T04:04:21;17.10;;;10.00;;
22219;SDS011;11279;48.364;10.904;2022-10-31T04:05:21;18.20;;;10.27;;
22219;SDS011;11279;48.364;10.904;2022-10-31T04:06:22;21.47;;;10.87;;
22219;SDS011;11279;48.364;10.904;2022-10-31T04:07:25;19.80;;;10.00;;
22219;SDS011;11279;48.364;10.904;2022-10-31T04:08:29;24.10;;;9.63;;
22219;SDS011;11279;48.364;10.904;2022-10-31T04:09:31;19.30;;;10.55;;
22219;SDS011;11279;48.364;10.904;2022-10-31T04:10:33;22.98;;;10.07;;
22219;SDS011;11279;48.364;10.904;2022-10-31T04:11:35;23.23;;;10.88;;
22219;SDS011;11279;48.364;10.904;2022-10-31T04:12:38;19.88;;;9.60;;
22219;SDS011;11279;48.364;10.904;2022-10-31T04:13:39;18.38;;;10.02;;
22219;SDS011;11279;48.364;10.904;2022-10-31T04:14:40;16.63;;;9.30;;
22219;SDS011;11279;48.364;10.904;2022-10-31T04:15:42;23.13;;;10.32;;
22219;SDS011;11279;48.364;10.904;2022-10-31T04:16:43;20.65;;;9.23;;
22219;SDS011;11279;48.364;10.904;2022-10-31T04:17:45;24.77;;;11.30;;
22219;SDS011;11279;48.364;10.904;2022-10-31T04:18:46;19.60;;;10.43;;
22219;SDS011;11279;48.364;10.904;2022-10-31T04:19:47;20.13;;;10.00;;
22219;SDS011;11279;48.364;10.904;2022-10-31T04:20:47;22.73;;;10.03;;
22219;SDS011;11279;48.364;10.904;2022-10-31T04:21:51;20.67;;;10.38;;
22219;SDS011;11279;48.364;10.904;2022-10-31T04:22:51;20.70;;;9.77;;
22219;SDS011;11279;48.364;10.904;2022-10-31T04:23:52;17.83;;;9.73;;
22219;SDS011;11279;48.364;10.904;2022-10-31T04:24:52;21.23;;;10.47;;
22219;SDS011;11279;48.364;10.904;2022-10-31T04:25:52;25.83;;;10.57;;
22219;SDS011;11279;48.364;10.904;2022-10-31T04:26:53;22.30;;;10.30;;
22219;SDS011;11279;48.364;10.904;2022-10-31T04:27:53;23.83;;;9.90;;
22219;SDS011;11279;48.364;10.904;2022-10-31T04:28:54;19.40;;;9.77;;
22219;SDS011;11279;48.364;10.904;2022-10-31T04:29:55;18.57;;;10.67;;
22219;SDS011;11279;48.364;10.904;2022-10-31T04:30:55;21.47;;;10.50;;
22219;SDS011;11279;48.364;10.904;2022-10-31T04:31:55;19.93;;;9.10;;
22219;SDS011;11279;48.364;10.904;2022-10-31T04:32:56;21.03;;;9.33;;
22219;SDS011;11279;48.364;10.904;2022-10-31T04:33:56;17.17;;;9.90;;
22219;SDS011;11279;48.364;10.904;2022-10-31T04:34:57;28.03;;;10.77;;
22219;SDS011;11279;48.364;10.904;2022-10-31T04:35:57;25.43;;;10.60;;
22219;SDS011;11279;48.364;10.904;2022-10-31T04:36:58;16.83;;;9.83;;
22219;SDS011;11279;48.364;10.904;2022-10-31T04:37:58;22.33;;;10.47;;
22219;SDS011;11279;48.364;10.904;2022-10-31T04:38:58;23.73;;;10.27;;
22219;SDS011;11279;48.364;10.904;2022-10-31T04:39:59;23.03;;;10.70;;
22219;SDS011;11279;48.364;10.904;2022-10-31T04:40:59;20.90;;;10.43;;
22219;SDS011;11279;48.364;10.904;2022-10-31T04:42:00;15.00;;;8.97;;
22219;SDS011;11279;48.364;10.904;2022-10-31T04:43:00;21.77;;;9.80;;
22219;SDS011;11279;48.364;10.904;2022-10-31T04:44:00;21.50;;;9.90;;
22219;SDS011;11279;48.364;10.904;2022-10-31T04:45:01;20.37;;;9.27;;
22219;SDS011;11279;48.364;10.904;2022-10-31T04:46:01;23.60;;;10.83;;
22219;SDS011;11279;48.364;10.904;2022-10-31T04:47:02;18.67;;;9.47;;
22219;SDS011;11279;48.364;10.904;2022-10-31T04:48:02;24.67;;;10.03;;
22219;SDS011;11279;48.364;10.904;2022-10-31T04:49:03;24.77;;;10.87;;
22219;SDS011;11279;48.364;10.904;2022-10-31T04:50:03;21.33;;;10.33;;
22219;SDS011;11279;48.364;10.904;2022-10-31T04:51:04;19.33;;;9.00;;
22219;SDS011;11279;48.364;10.904;2022-10-31T04:52:04;19.77;;;9.30;;
22219;SDS011;11279;48.364;10.904;2022-10-31T04:53:05;23.20;;;10.20;;
22219;SDS011;11279;48.364;10.904;2022-10-31T04:54:05;25.43;;;10.47;;
22219;SDS011;11279;48.364;10.904;2022-10-31T04:55:06;26.00;;;9.67;;
22219;SDS011;11279;48.364;10.904;2022-10-31T04:56:07;21.40;;;10.40;;
22219;SDS011;11279;48.364;10.904;2022-10-31T04:57:07;24.00;;;10.67;;
22219;SDS011;11279;48.364;10.904;2022-10-31T04:58:08;19.20;;;8.70;;
22219;SDS011;11279;48.364;10.904;2022-10-31T04:59:08;22.83;;;9.77;;
22219;SDS011;11279;48.364;10.904;2022-10-31T05:00:09;20.20;;;9.00;;
22219;SDS011;11279;48.364;10.904;2022-10-31T05:01:10;25.70;;;10.18;;
22219;SDS011;11279;48.364;10.904;2022-10-31T05:02:11;18.60;;;10.00;;
22219;SDS011;11279;48.364;10.904;2022-10-31T05:03:11;17.80;;;9.70;;
22219;SDS011;11279;48.364;10.904;2022-10-31T05:04:12;23.23;;;9.37;;
22219;SDS011;11279;48.364;10.904;2022-10-31T05:05:13;21.00;;;9.33;;
22219;SDS011;11279;48.364;10.904;2022-10-31T05:06:14;17.90;;;9.02;;
22219;SDS011;11279;48.364;10.904;2022-10-31T05:07:16;17.15;;;9.23;;
22219;SDS011;11279;48.364;10.904;2022-10-31T05:08:16;24.10;;;13.80;;
22219;SDS011;11279;48.364;10.904;2022-10-31T05:09:17;18.47;;;9.43;;
22219;SDS011;11279;48.364;10.904;2022-10-31T05:10:18;16.83;;;9.23;;
22219;SDS011;11279;48.364;10.904;2022-10-31T05:11:20;23.35;;;9.23;;
22219;SDS011;11279;48.364;10.904;2022-10-31T05:12:20;15.80;;;8.50;;
22219;SDS011;11279;48.364;10.904;2022-10-31T05:13:20;17.30;;;8.70;;
22219;SDS011;11279;48.364;10.904;2022-10-31T05:14:21;18.73;;;9.93;;
22219;SDS011;11279;48.364;10.904;2022-10-31T05:15:22;23.97;;;9.40;;
22219;SDS011;11279;48.364;10.904;2022-10-31T05:16:24;19.40;;;8.35;;
22219;SDS011;11279;48.364;10.904;2022-10-31T05:17:24;20.73;;;8.40;;
22219;SDS011;11279;48.364;10.904;2022-10-31T05:18:24;21.63;;;10.07;;
22219;SDS011;11279;48.364;10.904;2022-10-31T05:19:25;18.50;;;8.73;;
22219;SDS011;11279;48.364;10.904;2022-10-31T05:20:26;18.87;;;9.40;;
22219;SDS011;11279;48.364;10.904;2022-10-31T05:21:28;18.02;;;7.95;;
22219;SDS011;11279;48.364;10.904;2022-10-31T05:22:28;17.87;;;8.73;;
22219;SDS011;11279;48.364;10.904;2022-10-31T05:23:28;19.47;;;9.07;;
22219;SDS011;11279;48.364;10.904;2022-10-31T05:24:29;14.73;;;8.50;;
22219;SDS011;11279;48.364;10.904;2022-10-31T05:25:29;16.40;;;7.80;;
22219;SDS011;11279;48.364;10.904;2022-10-31T05:26:30;21.40;;;9.10;;
22219;SDS011;11279;48.364;10.904;2022-10-31T05:27:30;16.43;;;7.90;;
22219;SDS011;11279;48.364;10.904;2022-10-31T05:28:31;20.83;;;9.70;;
22219;SDS011;11279;48.364;10.904;2022-10-31T05:29:31;21.07;;;10.00;;
22219;SDS011;11279;48.364;10.904;2022-10-31T05:30:33;18.88;;;9.45;;
22219;SDS011;11279;48.364;10.904;2022-10-31T05:31:34;23.70;;;10.50;;
22219;SDS011;11279;48.364;10.904;2022-10-31T05:32:38;27.63;;;10.53;;
22219;SDS011;11279;48.364;10.904;2022-10-31T05:33:39;22.88;;;9.13;;
22219;SDS011;11279;48.364;10.904;2022-10-31T05:34:40;19.07;;;9.43;;
22219;SDS011;11279;48.364;10.904;2022-10-31T05:35:40;18.77;;;9.30;;
22219;SDS011;11279;48.364;10.904;2022-10-31T05:36:41;19.17;;;8.97;;
22219;SDS011;11279;48.364;10.904;2022-10-31T05:37:41;17.80;;;8.43;;
22219;SDS011;11279;48.364;10.904;2022-10-31T05:38:42;19.90;;;9.93;;
22219;SDS011;11279;48.364;10.904;2022-10-31T05:39:42;19.23;;;8.93;;
22219;SDS011;11279;48.364;10.904;2022-10-31T05:40:43;18.37;;;7.90;;
22219;SDS011;11279;48.364;10.904;2022-10-31T05:41:43;21.23;;;9.37;;
22219;SDS011;11279;48.364;10.904;2022-10-31T05:42:43;22.07;;;9.63;;
22219;SDS011;11279;48.364;10.904;2022-10-31T05:43:44;16.27;;;8.67;;
22219;SDS011;11279;48.364;10.904;2022-10-31T05:44:45;23.70;;;9.02;;
22219;SDS011;11279;48.364;10.904;2022-10-31T05:45:46;17.60;;;9.20;;
22219;SDS011;11279;48.364;10.904;2022-10-31T05:46:46;16.37;;;8.43;;
22219;SDS011;11279;48.364;10.904;2022-10-31T05:47:56;20.50;;;8.27;;
22219;SDS011;11279;48.364;10.904;2022-10-31T05:48:57;18.40;;;8.23;;
22219;SDS011;11279;48.364;10.904;2022-10-31T05:49:58;19.23;;;9.07;;
22219;SDS011;11279;48.364;10.904;2022-10-31T05:50:58;15.47;;;8.50;;
22219;SDS011;11279;48.364;10.904;2022-10-31T05:51:59;18.60;;;9.07;;
22219;SDS011;11279;48.364;10.904;2022-10-31T05:53:00;21.37;;;8.63;;
22219;SDS011;11279;48.364;10.904;2022-10-31T05:54:02;17.92;;;8.82;;
22219;SDS011;11279;48.364;10.904;2022-10-31T05:55:03;17.10;;;8.60;;
22219;SDS011;11279;48.364;10.904;2022-10-31T05:56:03;16.33;;;8.50;;
22219;SDS011;11279;48.364;10.904;2022-10-31T05:57:04;18.83;;;8.83;;
22219;SDS011;11279;48.364;10.904;2022-10-31T05:58:04;22.80;;;9.23;;
22219;SDS011;11279;48.364;10.904;2022-10-31T05:59:05;20.60;;;9.37;;
22219;SDS011;11279;48.364;10.904;2022-10-31T06:00:05;20.00;;;9.13;;
22219;SDS011;11279;48.364;10.904;2022-10-31T06:01:06;21.05;;;9.63;;
22219;SDS011;11279;48.364;10.904;2022-10-31T06:02:07;24.67;;;9.33;;
22219;SDS011;11279;48.364;10.904;2022-10-31T06:03:08;22.07;;;9.07;;
22219;SDS011;11279;48.364;10.904;2022-10-31T06:04:09;15.23;;;8.70;;
22219;SDS011;11279;48.364;10.904;2022-10-31T06:05:09;22.10;;;9.07;;
22219;SDS011;11279;48.364;10.904;2022-10-31T06:06:10;19.33;;;9.10;;
22219;SDS011;11279;48.364;10.904;2022-10-31T06:07:10;18.20;;;8.40;;
22219;SDS011;11279;48.364;10.904;2022-10-31T06:08:11;20.17;;;9.33;;
22219;SDS011;11279;48.364;10.904;2022-10-31T06:09:11;19.30;;;9.63;;
22219;SDS011;11279;48.364;10.904;2022-10-31T06:10:11;17.63;;;9.30;;
22219;SDS011;11279;48.364;10.904;2022-10-31T06:11:12;18.10;;;8.60;;
22219;SDS011;11279;48.364;10.904;2022-10-31T06:12:12;18.83;;;8.43;;
22219;SDS011;11279;48.364;10.904;2022-10-31T06:13:13;20.53;;;8.67;;
22219;SDS011;11279;48.364;10.904;2022-10-31T06:14:13;21.93;;;8.53;;
22219;SDS011;11279;48.364;10.904;2022-10-31T06:15:13;19.13;;;8.90;;
22219;SDS011;11279;48.364;10.904;2022-10-31T06:16:14;18.50;;;8.80;;
22219;SDS011;11279;48.364;10.904;2022-10-31T06:17:15;15.53;;;7.17;;
22219;SDS011;11279;48.364;10.904;2022-10-31T06:18:15;24.87;;;9.37;;
22219;SDS011;11279;48.364;10.904;2022-10-31T06:19:16;16.80;;;8.63;;
22219;SDS011;11279;48.364;10.904;2022-10-31T06:20:16;16.90;;;8.30;;
22219;SDS011;11279;48.364;10.904;2022-10-31T06:21:16;19.30;;;8.73;;
22219;SDS011;11279;48.364;10.904;2022-10-31T06:22:17;15.93;;;7.70;;
22219;SDS011;11279;48.364;10.904;2022-10-31T06:23:17;22.73;;;9.23;;
22219;SDS011;11279;48.364;10.904;2022-10-31T06:24:18;15.53;;;8.47;;
22219;SDS011;11279;48.364;10.904;2022-10-31T06:25:18;20.30;;;8.30;;
22219;SDS011;11279;48.364;10.904;2022-10-31T06:26:19;17.70;;;8.30;;
22219;SDS011;11279;48.364;10.904;2022-10-31T06:27:19;20.53;;;8.60;;
22219;SDS011;11279;48.364;10.904;2022-10-31T06:28:19;20.90;;;7.93;;
22219;SDS011;11279;48.364;10.904;2022-10-31T06:29:20;14.73;;;8.63;;